Portada
METAR-TAF:

METAR-TAF

Aeropuertos :

Chitá, Rusia

Aeropuerto de Chitá-Kadala

latitud: 52-05N, longitud: 113-29E, altitud: 685 m

Observación

El informe se hizo hace 1 hora y 5 minutos, a las 12:00 UTC
Viento 6 kt del oeste
Temperatura -4°C
Humedad 54%
Presión 1018 hPa
Visibilidad 10 km o más

METAR: UIAA 261200Z 27003MPS 9999 NSC M04/M12 Q1018 R29/CLRD70 NOSIG RMK QFE705

Hora: 22:05 (13:05 UTC)

Pronóstico

El informe se hizo hace 2 horas y 5 minutos, a las 11:00 UTC
Pronóstico válido del 26 a las 12 UTC al 27 a las 12 UTC
Viento 6 kt del sur
Visibilidad 10 km o más

TAF: UIAA 261100Z 2612/2712 18003MPS 9999 NSC

Observaciones y pronósticos meteorológicos de más de 4000 aeropuertos (mensajes METAR y TAF).

Los puntos amarillos y rojos representan las estaciones disponibles.

Ponga el ratón en el punto deseado para ver el nombre de la estación.

Haga clic para ver las observaciones y los pronósticos meteorológicos.

Para cambiar el mapa : haga clic en los botones verdes con una cruz de color negro para hacer un zoom, en el botón verde con un guión para alejar o en las flechas verdes para mapas adyacentes.


METAR-TAF: